Time;durP1;ratioP1;P1;durP2;ratioP2;P2;SDS_P1;SDS_P2;PMS_P1;PMS_P2;Temp;Humidity;BMP_temperature;BMP_pressure;BME280_temperature;BME280_humidity;BME280_pressure;Samples;Min_cycle;Max_cycle;Signal;HPM_P1;HPM_P2
2023/10/11 00:01:58;;;;;;;18.25;7.65;;;16.80;99.90;;;;;;5055893;28;20066;-80
2023/10/11 00:04:23;;;;;;;15.10;7.28;;;16.80;99.90;;;;;;5073368;28;20044;-80
2023/10/11 00:06:55;;;;;;;14.95;7.05;;;16.70;99.90;;;;;;5055749;28;20051;-80
2023/10/11 00:09:34;;;;;;;16.83;8.13;;;16.80;99.90;;;;;;5057121;28;20131;-80
2023/10/11 00:12:01;;;;;;;16.52;8.27;;;16.70;99.90;;;;;;5072922;28;20103;-80
2023/10/11 00:14:28;;;;;;;17.58;8.15;;;16.70;99.90;;;;;;5063016;28;20055;-80
2023/10/11 00:16:54;;;;;;;17.77;8.70;;;16.70;99.90;;;;;;5053222;28;20032;-80
2023/10/11 00:19:22;;;;;;;16.50;7.65;;;16.70;99.90;;;;;;5056961;28;20128;-80
2023/10/11 00:21:49;;;;;;;18.27;8.68;;;16.80;99.90;;;;;;5072498;28;20040;-80
2023/10/11 00:24:17;;;;;;;23.17;8.65;;;16.80;99.90;;;;;;5053870;28;20037;-80
2023/10/11 00:26:44;;;;;;;17.75;7.97;;;16.80;99.90;;;;;;5085501;28;20123;-81
2023/10/11 00:29:11;;;;;;;15.43;8.60;;;16.80;99.90;;;;;;5073760;28;20384;-80
2023/10/11 00:31:38;;;;;;;18.67;8.60;;;16.80;99.90;;;;;;5056897;28;20037;-81
2023/10/11 00:34:07;;;;;;;20.70;9.32;;;16.80;99.90;;;;;;5056195;28;20040;-81
2023/10/11 00:36:36;;;;;;;17.02;8.77;;;16.80;99.90;;;;;;5055844;28;20135;-80
2023/10/11 00:39:05;;;;;;;20.33;9.93;;;16.80;99.90;;;;;;5073265;28;20127;-81
2023/10/11 00:41:31;;;;;;;15.60;8.95;;;16.80;99.90;;;;;;5056473;28;20071;-81
2023/10/11 00:43:57;;;;;;;16.48;8.88;;;16.70;99.90;;;;;;5072010;28;20091;-80
2023/10/11 00:46:57;;;;;;;18.35;9.05;;;16.80;99.90;;;;;;5080778;28;20037;-80
2023/10/11 00:49:23;;;;;;;16.23;9.20;;;16.70;99.90;;;;;;5056425;28;20074;-80
2023/10/11 00:51:49;;;;;;;18.85;9.73;;;16.80;99.90;;;;;;5052197;28;20053;-80
2023/10/11 00:54:15;;;;;;;20.08;9.75;;;16.80;99.90;;;;;;5054006;28;20044;-80
2023/10/11 00:56:43;;;;;;;17.83;9.30;;;16.70;99.90;;;;;;5055309;28;20045;-81
2023/10/11 00:59:11;;;;;;;17.38;8.93;;;16.70;99.90;;;;;;5056239;28;20044;-80
2023/10/11 01:01:42;;;;;;;21.45;9.20;;;16.80;99.90;;;;;;5072680;28;20043;-80
2023/10/11 01:04:09;;;;;;;20.98;9.43;;;16.70;99.90;;;;;;5055091;28;20033;-79
2023/10/11 01:06:35;;;;;;;21.35;9.88;;;16.70;99.90;;;;;;5071350;28;20032;-80
2023/10/11 01:09:09;;;;;;;23.50;10.82;;;16.80;99.90;;;;;;5055960;28;20059;-80
2023/10/11 01:11:34;;;;;;;16.70;9.38;;;16.70;99.90;;;;;;5072645;28;20094;-80
2023/10/11 01:14:00;;;;;;;15.80;9.20;;;16.70;99.90;;;;;;5055226;28;20477;-79
2023/10/11 01:16:28;;;;;;;25.13;12.20;;;16.70;99.90;;;;;;5068395;28;20039;-80
2023/10/11 01:18:54;;;;;;;20.55;10.20;;;16.70;99.90;;;;;;5055947;28;20090;-81
2023/10/11 01:21:20;;;;;;;21.67;11.40;;;16.60;99.90;;;;;;5055996;28;20036;-80
2023/10/11 01:23:46;;;;;;;19.50;10.43;;;16.70;99.90;;;;;;5072342;28;20499;-80
2023/10/11 01:26:11;;;;;;;24.23;10.88;;;16.70;99.90;;;;;;5054395;28;20397;-80
2023/10/11 01:28:40;;;;;;;19.50;10.25;;;16.70;99.90;;;;;;5071362;28;20516;-80
2023/10/11 01:31:10;;;;;;;19.17;10.23;;;16.70;99.90;;;;;;5067296;28;20044;-80
2023/10/11 01:33:41;;;;;;;19.95;10.43;;;16.70;99.90;;;;;;5035618;28;20076;-80
2023/10/11 01:36:09;;;;;;;23.58;10.82;;;16.70;99.90;;;;;;5049557;28;20045;-80
2023/10/11 01:38:48;;;;;;;22.80;10.50;;;16.70;99.90;;;;;;5071361;28;20078;-80
2023/10/11 01:41:15;;;;;;;22.02;11.15;;;16.70;99.90;;;;;;5072126;28;20076;-80
2023/10/11 01:43:42;;;;;;;19.15;10.27;;;16.80;99.90;;;;;;5072418;28;20048;-80
2023/10/11 01:46:07;;;;;;;23.33;11.50;;;16.80;99.90;;;;;;5053980;28;20056;-80
2023/10/11 01:48:33;;;;;;;22.98;11.15;;;16.70;99.90;;;;;;5055324;28;20048;-80
2023/10/11 01:51:05;;;;;;;25.23;11.77;;;16.70;99.90;;;;;;5071025;28;20036;-80
2023/10/11 01:53:31;;;;;;;;;;;16.70;99.90;;;;;;5072360;28;20463;-80
2023/10/11 01:55:56;;;;;;;24.92;11.75;;;16.80;99.90;;;;;;5068506;28;19978;-80
2023/10/11 01:58:22;;;;;;;24.20;10.95;;;16.70;99.90;;;;;;5054756;28;20488;-81
2023/10/11 02:00:49;;;;;;;24.52;11.98;;;16.70;99.90;;;;;;5053566;28;20447;-80
2023/10/11 02:03:15;;;;;;;27.15;11.57;;;16.70;99.90;;;;;;5054576;28;20173;-80
2023/10/11 02:05:41;;;;;;;23.48;11.65;;;16.70;99.90;;;;;;5053033;28;20048;-80
2023/10/11 02:08:11;;;;;;;20.50;11.15;;;16.80;99.90;;;;;;5071876;28;20063;-80
2023/10/11 02:10:37;;;;;;;23.35;12.10;;;16.70;99.90;;;;;;5071906;28;20040;-80
2023/10/11 02:13:04;;;;;;;27.23;11.52;;;16.70;99.90;;;;;;5055086;28;20048;-80
2023/10/11 02:15:30;;;;;;;25.15;11.40;;;16.70;99.90;;;;;;5070818;28;20032;-80
2023/10/11 02:17:57;;;;;;;30.63;12.07;;;16.60;99.90;;;;;;5070216;28;20048;-80
2023/10/11 02:20:23;;;;;;;26.23;11.90;;;16.60;99.90;;;;;;5071737;28;20046;-80
2023/10/11 02:22:55;;;;;;;20.83;10.05;;;16.50;99.90;;;;;;5054874;28;20438;-80
2023/10/11 02:25:24;;;;;;;24.17;11.25;;;16.70;99.90;;;;;;5054212;28;20488;-80
2023/10/11 02:27:51;;;;;;;22.25;12.75;;;16.60;99.90;;;;;;5054222;28;20044;-80
2023/10/11 02:30:21;;;;;;;24.27;11.95;;;16.60;99.90;;;;;;5055172;28;20110;-80
2023/10/11 02:32:48;;;;;;;22.30;11.13;;;16.70;99.90;;;;;;5071488;28;20124;-81
2023/10/11 02:35:14;;;;;;;26.13;11.77;;;16.70;99.90;;;;;;5067849;28;20045;-80
2023/10/11 02:37:40;;;;;;;20.63;10.55;;;16.60;99.90;;;;;;5051554;28;20037;-80
2023/10/11 02:40:10;;;;;;;24.75;11.82;;;16.70;99.90;;;;;;5035001;28;20037;-80
2023/10/11 02:42:36;;;;;;;19.88;11.82;;;16.60;99.90;;;;;;5051671;28;20037;-80
2023/10/11 02:45:06;;;;;;;24.42;11.50;;;16.60;99.90;;;;;;5069247;28;20052;-80
2023/10/11 02:47:38;;;;;;;23.77;11.77;;;16.60;99.90;;;;;;5053716;28;20032;-81
2023/10/11 02:50:05;;;;;;;25.25;12.10;;;16.60;99.90;;;;;;5055349;28;20127;-81
2023/10/11 02:52:35;;;;;;;22.45;12.02;;;16.60;99.90;;;;;;5070296;28;20098;-81
2023/10/11 02:55:16;;;;;;;22.83;12.13;;;16.50;99.90;;;;;;5071295;28;20036;-81
2023/10/11 02:57:42;;;;;;;27.08;11.70;;;16.50;99.90;;;;;;5070174;28;20476;-81
2023/10/11 03:00:21;;;;;;;21.50;11.60;;;16.50;99.90;;;;;;5054699;28;20033;-81
2023/10/11 03:02:56;;;;;;;25.45;10.27;;;16.50;99.90;;;;;;5071566;28;20147;-81
2023/10/11 03:05:29;;;;;;;25.05;11.02;;;16.60;99.90;;;;;;5070502;28;20090;-81
2023/10/11 03:08:14;;;;;;;27.95;11.57;;;16.60;99.90;;;;;;5054035;28;20044;-81
2023/10/11 03:10:45;;;;;;;23.48;11.45;;;16.50;99.90;;;;;;5073982;28;20043;-80
2023/10/11 03:13:29;;;;;;;24.05;12.50;;;16.60;99.90;;;;;;5057304;28;20496;-80
2023/10/11 03:15:55;;;;;;;20.65;11.48;;;16.50;99.90;;;;;;5074904;28;20036;-80
2023/10/11 03:18:32;;;;;;;27.20;11.88;;;16.50;99.90;;;;;;5053940;28;20033;-81
2023/10/11 03:21:19;;;;;;;24.33;11.88;;;16.40;99.90;;;;;;5046988;28;20032;-81
2023/10/11 03:23:54;;;;;;;23.08;10.73;;;16.40;99.90;;;;;;5055065;28;20090;-81
2023/10/11 03:26:31;;;;;;;21.17;11.02;;;16.50;99.90;;;;;;5074690;28;20423;-80
2023/10/11 03:29:03;;;;;;;20.50;11.00;;;16.50;99.90;;;;;;5057487;28;20084;-81
2023/10/11 03:31:34;;;;;;;21.63;10.30;;;16.50;99.90;;;;;;5057156;28;20083;-82
2023/10/11 03:34:10;;;;;;;20.48;10.68;;;16.50;99.90;;;;;;5073606;28;20029;-81
2023/10/11 03:36:43;;;;;;;21.13;10.43;;;16.60;99.90;;;;;;5058115;28;20043;-81
2023/10/11 03:39:15;;;;;;;20.73;10.77;;;16.40;99.90;;;;;;5066165;28;20439;-81
2023/10/11 03:41:46;;;;;;;;;;;16.40;99.90;;;;;;5052977;28;20033;-80
2023/10/11 03:44:20;;;;;;;21.10;10.33;;;16.40;99.90;;;;;;5073639;28;19916;-80
2023/10/11 03:46:54;;;;;;;24.63;11.70;;;16.40;99.90;;;;;;5057925;28;20086;-80
2023/10/11 03:51:50;;;;;;;23.95;10.45;;;16.40;99.90;;;;;;5073405;28;20122;-80
2023/10/11 03:54:23;;;;;;;22.95;10.55;;;16.40;99.90;;;;;;5056781;28;20043;-80
2023/10/11 03:56:53;;;;;;;28.20;10.63;;;16.40;99.90;;;;;;5074050;28;20524;-80
2023/10/11 03:59:20;;;;;;;24.60;10.25;;;16.50;99.90;;;;;;5055834;28;20113;-81
2023/10/11 04:01:46;;;;;;;24.95;11.52;;;16.40;99.90;;;;;;5037394;28;20041;-81
2023/10/11 04:04:12;;;;;;;25.20;10.38;;;16.40;99.90;;;;;;5049507;28;20094;-81
2023/10/11 04:06:37;;;;;;;22.85;9.82;;;16.50;99.90;;;;;;5073961;28;20459;-81
2023/10/11 04:09:03;;;;;;;24.08;10.27;;;16.60;99.90;;;;;;5073896;28;20124;-80
2023/10/11 04:11:54;;;;;;;25.08;10.38;;;16.60;99.90;;;;;;5055636;28;20044;-80
2023/10/11 04:14:39;;;;;;;20.17;9.13;;;16.60;99.90;;;;;;5056484;28;20040;-80
2023/10/11 04:17:07;;;;;;;21.27;9.55;;;16.60;99.90;;;;;;5074060;28;20369;-80
2023/10/11 04:19:32;;;;;;;21.02;8.90;;;16.70;99.90;;;;;;5057251;28;20098;-80
2023/10/11 04:22:12;;;;;;;24.20;10.40;;;16.60;99.90;;;;;;5054162;28;20539;-80
2023/10/11 04:24:38;;;;;;;24.50;9.88;;;16.60;99.90;;;;;;5072125;28;20084;-80
2023/10/11 04:27:45;;;;;;;20.70;9.52;;;16.60;99.90;;;;;;5056120;28;20040;-80
2023/10/11 04:30:17;;;;;;;23.70;9.88;;;16.60;99.90;;;;;;5069640;28;20052;-80
2023/10/11 04:32:45;;;;;;;24.50;10.10;;;16.60;99.90;;;;;;5056028;28;20135;-81
2023/10/11 04:35:36;;;;;;;22.15;9.82;;;16.50;99.90;;;;;;5055945;28;20032;-80
2023/10/11 04:38:03;;;;;;;22.67;10.27;;;16.40;99.90;;;;;;5073394;28;20503;-81
2023/10/11 04:43:04;;;;;;;22.60;10.10;;;16.50;99.90;;;;;;5071265;28;20102;-80
2023/10/11 04:45:44;;;;;;;;;;;16.50;99.90;;;;;;5072726;28;20052;-81
2023/10/11 04:48:36;;;;;;;23.20;9.68;;;16.50;99.90;;;;;;5073064;28;19999;-81
2023/10/11 04:51:06;;;;;;;24.00;10.45;;;16.50;99.90;;;;;;5071334;28;20051;-80
2023/10/11 04:53:34;;;;;;;20.50;10.52;;;16.50;99.90;;;;;;5052929;28;20045;-80
2023/10/11 04:56:01;;;;;;;19.38;11.35;;;16.50;99.90;;;;;;5066460;28;20052;-80
2023/10/11 04:58:49;;;;;;;24.52;9.55;;;16.50;99.90;;;;;;5072803;28;20123;-81
2023/10/11 05:01:22;;;;;;;20.50;11.02;;;16.40;99.90;;;;;;5072111;28;20083;-80
2023/10/11 05:03:58;;;;;;;24.75;9.60;;;16.50;99.90;;;;;;5036877;28;20103;-80
2023/10/11 05:06:31;;;;;;;21.00;9.15;;;16.50;99.90;;;;;;5036037;28;20044;-80
2023/10/11 05:09:05;;;;;;;19.17;9.23;;;16.50;99.90;;;;;;5070467;28;20041;-81
2023/10/11 05:11:42;;;;;;;20.38;10.57;;;16.40;99.90;;;;;;5055955;28;20128;-80
2023/10/11 05:14:28;;;;;;;22.35;9.85;;;16.50;99.90;;;;;;5036965;28;20116;-80
2023/10/11 05:16:59;;;;;;;21.85;10.18;;;16.50;99.90;;;;;;5051181;28;20440;-80
2023/10/11 05:19:34;;;;;;;25.05;10.00;;;16.40;99.90;;;;;;5056217;28;20549;-80
2023/10/11 05:22:03;;;;;;;23.88;9.80;;;16.40;99.90;;;;;;5056125;28;20040;-81
2023/10/11 05:27:25;;;;;;;22.58;10.68;;;16.30;99.90;;;;;;5069460;28;20157;-80
2023/10/11 05:51:39;;;;;;;20.45;10.40;;;16.40;99.90;;;;;;5070337;28;20397;-80
2023/10/11 05:54:09;;;;;;;26.55;12.82;;;16.40;99.90;;;;;;5069469;28;20060;-80
2023/10/11 05:56:38;;;;;;;25.23;10.60;;;16.30;99.90;;;;;;5071108;28;20390;-80
2023/10/11 05:59:04;;;;;;;26.42;10.95;;;16.30;99.90;;;;;;5063729;28;20123;-80
2023/10/11 06:01:30;;;;;;;22.60;10.73;;;16.40;99.90;;;;;;5059498;28;20119;-80
2023/10/11 06:03:57;;;;;;;21.88;10.55;;;16.40;99.90;;;;;;5070695;28;20066;-81
2023/10/11 06:06:45;;;;;;;23.42;10.88;;;16.50;99.90;;;;;;5055327;28;20054;-80
2023/10/11 06:09:17;;;;;;;22.45;10.43;;;16.60;99.90;;;;;;5071803;28;20044;-80
2023/10/11 06:11:49;;;;;;;;;;;16.60;99.90;;;;;;5072526;28;20063;-80
2023/10/11 06:14:17;;;;;;;25.48;10.68;;;16.60;99.90;;;;;;5070698;28;20258;-80
2023/10/11 06:16:49;;;;;;;24.30;10.93;;;16.50;99.90;;;;;;5091268;28;20511;-80
2023/10/11 06:19:16;;;;;;;24.50;9.68;;;16.50;99.90;;;;;;5060971;28;20048;-80
2023/10/11 06:21:59;;;;;;;22.40;10.77;;;16.60;99.90;;;;;;5055060;28;20113;-80
2023/10/11 06:24:36;;;;;;;24.35;10.88;;;16.60;99.90;;;;;;5070754;28;20131;-80
2023/10/11 06:29:45;;;;;;;28.75;11.93;;;16.60;99.90;;;;;;5072029;28;20044;-80
2023/10/11 06:32:11;;;;;;;27.20;12.73;;;16.60;99.90;;;;;;5061883;28;20040;-80
2023/10/11 06:34:44;;;;;;;21.80;10.48;;;16.60;99.90;;;;;;5069115;28;20111;-80
2023/10/11 06:37:10;;;;;;;25.95;11.45;;;16.60;99.90;;;;;;5054890;28;20040;-80
2023/10/11 06:44:48;;;;;;;26.83;11.90;;;16.70;99.90;;;;;;5071856;28;20131;-80
2023/10/11 06:47:14;;;;;;;23.08;10.32;;;16.60;99.90;;;;;;5073533;28;20045;-80
2023/10/11 06:49:44;;;;;;;27.27;12.57;;;16.70;99.90;;;;;;5068290;28;20045;-80
2023/10/11 06:52:19;;;;;;;23.08;11.98;;;16.80;99.90;;;;;;5066639;28;20120;-76
2023/10/11 06:54:47;;;;;;;27.55;10.95;;;16.80;99.90;;;;;;5069083;28;20037;-80
2023/10/11 06:57:19;;;;;;;29.10;12.50;;;16.70;99.90;;;;;;5057247;28;20131;-80
2023/10/11 06:59:57;;;;;;;;;;;16.70;99.90;;;;;;5073752;28;20479;-80
2023/10/11 07:02:31;;;;;;;24.13;11.35;;;16.70;99.90;;;;;;5058758;28;20390;-80
2023/10/11 07:05:08;;;;;;;24.50;11.02;;;16.70;99.90;;;;;;5072979;28;20041;-80
2023/10/11 07:07:34;;;;;;;25.73;11.80;;;16.80;99.90;;;;;;5057855;28;20044;-80
2023/10/11 07:10:04;;;;;;;22.10;11.98;;;16.80;99.90;;;;;;5056565;28;20081;-80
2023/10/11 07:12:39;;;;;;;28.02;11.93;;;16.90;99.90;;;;;;5058314;28;20044;-81
2023/10/11 07:15:09;;;;;;;28.45;11.70;;;16.80;99.90;;;;;;5069309;28;20456;-81
2023/10/11 07:17:36;;;;;;;22.50;11.80;;;16.80;99.90;;;;;;5056931;28;20049;-81
2023/10/11 07:20:12;;;;;;;25.63;11.52;;;16.80;99.90;;;;;;5067220;28;20036;-81
2023/10/11 07:22:39;;;;;;;28.95;11.75;;;16.80;99.90;;;;;;5054812;28;20047;-81
2023/10/11 07:25:36;;;;;;;28.75;11.75;;;16.80;99.90;;;;;;5057132;28;20040;-81
2023/10/11 07:27:53;;;;;;;25.17;12.07;;;16.80;99.90;;;;;;5074586;28;20048;-81
2023/10/11 07:30:19;;;;;;;26.70;12.95;;;16.90;99.90;;;;;;5057223;28;20052;-81
2023/10/11 07:32:45;;;;;;;25.48;11.75;;;16.80;99.90;;;;;;5073711;28;20072;-81
2023/10/11 07:35:27;;;;;;;22.83;11.88;;;16.90;99.90;;;;;;5073638;28;20444;-81
2023/10/11 07:37:53;;;;;;;;;;;17.00;99.90;;;;;;5075006;28;20039;-81
2023/10/11 07:40:31;;;;;;;23.98;11.50;;;17.00;99.90;;;;;;5056588;28;19920;-80
2023/10/11 07:42:57;;;;;;;27.88;12.02;;;17.00;99.90;;;;;;5074711;28;20150;-81
2023/10/11 07:45:26;;;;;;;29.25;13.82;;;17.00;99.90;;;;;;5056753;28;20512;-81
2023/10/11 07:47:52;;;;;;;28.38;12.43;;;17.10;99.90;;;;;;5058026;28;20370;-81
2023/10/11 07:50:22;;;;;;;29.20;12.13;;;17.10;99.90;;;;;;5056686;28;20519;-81
2023/10/11 07:52:49;;;;;;;26.30;12.57;;;17.00;99.90;;;;;;5056860;28;20072;-81
2023/10/11 07:55:17;;;;;;;34.58;14.68;;;17.10;99.90;;;;;;5056705;28;20051;-81
2023/10/11 07:57:46;;;;;;;28.52;13.48;;;17.10;99.90;;;;;;5074329;28;20443;-81
2023/10/11 08:00:18;;;;;;;32.53;14.40;;;17.00;99.90;;;;;;5061147;28;20045;-81
2023/10/11 08:03:02;;;;;;;32.13;14.70;;;16.90;99.90;;;;;;5057407;28;20037;-81
2023/10/11 08:05:29;;;;;;;33.95;13.45;;;16.90;99.90;;;;;;5056610;28;20128;-81
2023/10/11 08:07:55;;;;;;;27.83;14.00;;;17.00;99.90;;;;;;5073099;28;20523;-81
2023/10/11 08:10:33;;;;;;;33.03;14.20;;;17.10;99.90;;;;;;5072890;28;20036;-81
2023/10/11 08:13:03;;;;;;;34.53;15.20;;;17.10;99.90;;;;;;5074156;28;20455;-81
2023/10/11 08:15:30;;;;;;;32.72;13.80;;;17.00;99.90;;;;;;5072562;28;20448;-81
2023/10/11 08:17:56;;;;;;;31.90;14.23;;;17.00;99.90;;;;;;5072869;28;20040;-81
2023/10/11 08:20:27;;;;;;;27.00;14.30;;;17.00;99.90;;;;;;5056395;28;20102;-81
2023/10/11 08:22:55;;;;;;;28.70;14.02;;;17.00;99.90;;;;;;5074008;28;20366;-81
2023/10/11 08:25:26;;;;;;;36.78;17.15;;;17.10;99.90;;;;;;5057120;28;20458;-81
2023/10/11 08:28:08;;;;;;;37.10;16.45;;;17.10;99.90;;;;;;5055964;28;20037;-81
2023/10/11 08:30:37;;;;;;;33.65;15.15;;;17.10;99.90;;;;;;5052231;28;20040;-81
2023/10/11 08:33:04;;;;;;;33.17;15.43;;;17.00;99.90;;;;;;5053388;28;20041;-81
2023/10/11 08:35:32;;;;;;;29.52;16.17;;;17.00;99.90;;;;;;5052930;28;20116;-80
2023/10/11 08:38:04;;;;;;;29.23;14.25;;;17.00;99.90;;;;;;5036713;28;20044;-81
2023/10/11 08:40:36;;;;;;;31.38;15.77;;;16.90;99.90;;;;;;5054988;28;20063;-81
2023/10/11 08:43:03;;;;;;;34.08;14.27;;;16.90;99.90;;;;;;5059790;28;20401;-81
2023/10/11 08:45:48;;;;;;;28.83;14.05;;;17.00;99.90;;;;;;5050406;28;20047;-81
2023/10/11 08:48:15;;;;;;;30.35;14.52;;;17.00;99.90;;;;;;5071345;28;20048;-81
2023/10/11 08:50:51;;;;;;;32.45;16.23;;;17.10;99.90;;;;;;5056728;28;20048;-81
2023/10/11 08:53:20;;;;;;;25.48;12.32;;;17.00;99.90;;;;;;5073077;28;20051;-81
2023/10/11 08:55:51;;;;;;;32.00;13.80;;;17.00;99.90;;;;;;5055260;28;20505;-81
2023/10/11 08:58:28;;;;;;;30.65;14.25;;;17.10;99.90;;;;;;5055911;28;20098;-81
2023/10/11 09:00:59;;;;;;;28.90;13.00;;;17.10;99.90;;;;;;5072938;28;20033;-81
2023/10/11 09:03:26;;;;;;;24.98;12.18;;;17.00;99.90;;;;;;5056287;28;20033;-81
2023/10/11 09:05:58;;;;;;;21.70;11.90;;;17.10;99.90;;;;;;5067633;28;20037;-81
2023/10/11 09:08:32;;;;;;;23.98;11.25;;;17.10;99.90;;;;;;5070396;28;20046;-81
2023/10/11 09:11:11;;;;;;;26.38;11.77;;;17.20;99.90;;;;;;5072752;28;20048;-81
2023/10/11 09:13:41;;;;;;;22.55;10.75;;;17.20;99.90;;;;;;5055994;28;20044;-81
2023/10/11 09:16:13;;;;;;;24.52;11.07;;;17.40;99.90;;;;;;5071631;28;20492;-81
2023/10/11 09:18:41;;;;;;;22.85;10.82;;;17.40;99.90;;;;;;5071564;28;20562;-81
2023/10/11 09:21:17;;;;;;;20.40;9.25;;;17.30;99.90;;;;;;5072519;28;20040;-81
2023/10/11 09:23:48;;;;;;;18.77;9.45;;;17.40;99.90;;;;;;5072466;28;20051;-81
2023/10/11 09:26:21;;;;;;;26.25;10.50;;;17.40;99.90;;;;;;5054834;28;20094;-81
2023/10/11 09:29:02;;;;;;;23.10;8.90;;;17.40;99.90;;;;;;5054712;28;20037;-82
2023/10/11 09:31:30;;;;;;;19.83;9.30;;;17.40;99.90;;;;;;5072541;28;20106;-82
2023/10/11 09:34:07;;;;;;;21.50;9.98;;;17.40;99.90;;;;;;5071242;28;20051;-81
2023/10/11 09:36:33;;;;;;;15.73;7.43;;;17.40;99.90;;;;;;5072483;28;20040;-81
2023/10/11 09:39:03;;;;;;;19.20;7.30;;;17.40;99.90;;;;;;5071191;28;20036;-82
2023/10/11 09:41:39;;;;;;;15.27;7.03;;;17.50;99.90;;;;;;5071009;28;20599;-82
2023/10/11 09:44:14;;;;;;;16.48;7.25;;;17.50;99.90;;;;;;5071293;28;20048;-82
2023/10/11 09:46:43;;;;;;;16.45;6.75;;;17.50;99.90;;;;;;5072324;28;20041;-81
2023/10/11 09:49:15;;;;;;;17.98;7.10;;;17.50;99.90;;;;;;5070999;28;20043;-81
2023/10/11 09:51:42;;;;;;;21.42;7.57;;;17.50;99.90;;;;;;5054626;28;20166;-82
2023/10/11 09:54:12;;;;;;;19.35;8.35;;;17.50;99.90;;;;;;5069083;28;20059;-81
2023/10/11 09:56:50;;;;;;;20.67;7.90;;;17.50;99.90;;;;;;5052581;28;20098;-81
2023/10/11 09:59:24;;;;;;;15.20;7.53;;;17.50;99.90;;;;;;5059533;28;20172;-81
2023/10/11 10:02:15;;;;;;;17.17;6.53;;;17.60;99.90;;;;;;5084791;28;20121;-81
2023/10/11 10:04:50;;;;;;;19.17;7.10;;;17.70;99.90;;;;;;5069209;28;20437;-81
2023/10/11 10:07:32;;;;;;;15.18;7.03;;;17.70;99.90;;;;;;5050975;28;20033;-82
2023/10/11 10:10:02;;;;;;;14.23;6.40;;;17.70;99.90;;;;;;5035640;28;20044;-81
2023/10/11 10:12:45;;;;;;;14.25;6.22;;;17.70;99.90;;;;;;5071804;28;20089;-81
2023/10/11 10:15:13;;;;;;;16.38;6.75;;;17.80;99.90;;;;;;5071022;28;20040;-81
2023/10/11 10:18:05;;;;;;;16.30;5.80;;;17.80;99.90;;;;;;5072138;28;20036;-75
2023/10/11 10:20:33;;;;;;;15.27;6.23;;;17.80;99.90;;;;;;5060809;28;20404;-82
2023/10/11 10:23:14;;;;;;;17.27;6.53;;;17.80;99.90;;;;;;5074886;28;20045;-82
2023/10/11 10:25:46;;;;;;;15.73;6.57;;;17.80;99.90;;;;;;5055584;28;20045;-81
2023/10/11 10:28:34;;;;;;;13.82;6.35;;;17.90;99.90;;;;;;5069201;28;20044;-81
2023/10/11 10:31:04;;;;;;;11.98;6.05;;;17.90;99.90;;;;;;5065443;28;20400;-81
2023/10/11 10:33:35;;;;;;;16.05;6.85;;;18.00;99.90;;;;;;5060945;28;20426;-81
2023/10/11 10:36:21;;;;;;;16.33;5.85;;;17.90;99.90;;;;;;5061768;28;20115;-82
2023/10/11 10:41:40;;;;;;;14.20;5.90;;;18.00;99.90;;;;;;5076688;28;20032;-82
2023/10/11 10:44:11;;;;;;;12.55;5.85;;;17.80;99.90;;;;;;5078578;28;20082;-81
2023/10/11 10:46:59;;;;;;;13.73;5.72;;;17.90;99.90;;;;;;5061050;28;20032;-81
2023/10/11 10:49:54;;;;;;;13.52;5.43;;;17.80;99.90;;;;;;5079380;28;20409;-81
2023/10/11 10:52:29;;;;;;;12.05;5.25;;;17.90;99.90;;;;;;5069075;28;20059;-82
2023/10/11 10:55:03;;;;;;;12.75;4.93;;;18.00;99.90;;;;;;5056868;28;20107;-81
2023/10/11 10:57:38;;;;;;;11.68;5.22;;;18.10;99.90;;;;;;5046525;28;20455;-81
2023/10/11 11:00:07;;;;;;;10.43;5.03;;;18.20;99.90;;;;;;5076515;28;20037;-82
2023/10/11 11:02:34;;;;;;;11.63;5.15;;;18.20;99.90;;;;;;5072441;28;20090;-82
2023/10/11 11:05:01;;;;;;;12.27;5.25;;;18.20;99.90;;;;;;5073377;28;20044;-81
2023/10/11 11:07:32;;;;;;;11.20;4.60;;;18.30;99.90;;;;;;5052786;28;20207;-81
2023/10/11 11:09:58;;;;;;;11.00;5.15;;;18.40;99.90;;;;;;5074182;28;20044;-82
2023/10/11 11:12:28;;;;;;;12.32;4.90;;;18.30;99.90;;;;;;5060669;28;20058;-81
2023/10/11 11:15:00;;;;;;;9.65;4.18;;;18.40;99.90;;;;;;5059585;28;20036;-81
2023/10/11 11:17:47;;;;;;;10.98;4.57;;;18.40;99.90;;;;;;5061049;28;20036;-81
2023/10/11 11:20:40;;;;;;;11.77;4.50;;;18.30;99.90;;;;;;5076816;28;20045;-81
2023/10/11 11:23:00;;;;;;;12.13;4.60;;;18.50;99.90;;;;;;5061697;28;20048;-81
2023/10/11 11:28:24;;;;;;;11.60;4.80;;;18.50;99.90;;;;;;5075502;28;20071;-81
2023/10/11 11:31:05;;;;;;;11.25;4.45;;;18.50;99.90;;;;;;5070417;28;20469;-81
2023/10/11 11:33:47;;;;;;;9.10;4.20;;;18.50;99.90;;;;;;5055442;28;20048;-81
2023/10/11 11:36:31;;;;;;;8.80;4.18;;;18.60;99.90;;;;;;5053816;28;20048;-81
2023/10/11 11:41:52;;;;;;;8.73;3.70;;;18.70;99.90;;;;;;5084813;28;20071;-81
2023/10/11 11:44:25;;;;;;;7.93;3.10;;;18.70;99.90;;;;;;5073742;28;20044;-82
2023/10/11 11:46:53;;;;;;;11.68;3.58;;;18.80;99.90;;;;;;5043516;28;20091;-81
2023/10/11 11:49:23;;;;;;;9.55;3.53;;;18.70;99.90;;;;;;5054913;28;20037;-81
2023/10/11 11:51:55;;;;;;;8.18;3.10;;;18.70;99.90;;;;;;5057218;28;20047;-82
2023/10/11 11:54:27;;;;;;;10.63;3.85;;;18.70;99.90;;;;;;5056583;28;20036;-82
2023/10/11 11:56:54;;;;;;;10.82;3.60;;;18.70;99.90;;;;;;5069267;28;20056;-82
2023/10/11 11:59:21;;;;;;;8.05;3.55;;;18.70;99.90;;;;;;5072020;28;20036;-82
2023/10/11 12:01:56;;;;;;;10.13;3.60;;;18.70;99.90;;;;;;5065650;28;20033;-82
2023/10/11 12:04:29;;;;;;;11.02;3.90;;;18.80;99.90;;;;;;5090240;28;20081;-82
2023/10/11 12:06:58;;;;;;;11.40;4.07;;;18.80;99.90;;;;;;5055168;28;20040;-82
2023/10/11 12:09:31;;;;;;;11.60;4.15;;;18.80;99.90;;;;;;5055668;28;20043;-82
2023/10/11 12:12:02;;;;;;;12.02;4.38;;;18.80;99.90;;;;;;5073313;28;20033;-82
2023/10/11 12:14:28;;;;;;;9.70;4.25;;;18.80;99.90;;;;;;5062386;28;20041;-82
2023/10/11 12:16:55;;;;;;;9.73;3.05;;;18.90;99.90;;;;;;5054944;28;20037;-81
2023/10/11 12:19:21;;;;;;;9.85;3.17;;;18.90;99.90;;;;;;5055768;28;20400;-81
2023/10/11 12:21:47;;;;;;;11.00;3.78;;;19.00;99.90;;;;;;5073302;28;20161;-82
2023/10/11 12:24:12;;;;;;;10.13;3.50;;;19.30;99.90;;;;;;5089011;28;20127;-82
2023/10/11 12:26:43;;;;;;;9.85;3.90;;;19.20;99.90;;;;;;5069629;28;20047;-81
2023/10/11 12:29:09;;;;;;;8.40;3.63;;;19.20;99.90;;;;;;5082762;28;20056;-82
2023/10/11 12:31:38;;;;;;;8.00;3.25;;;19.30;99.90;;;;;;5067872;28;20071;-82
2023/10/11 12:34:11;;;;;;;8.63;3.30;;;19.20;99.90;;;;;;5072507;28;20080;-82
2023/10/11 12:36:41;;;;;;;10.55;3.50;;;19.20;99.90;;;;;;5069767;28;20040;-81
2023/10/11 12:39:20;;;;;;;8.95;3.50;;;19.30;99.90;;;;;;5052203;28;20043;-81
2023/10/11 12:41:48;;;;;;;11.07;3.42;;;19.30;99.90;;;;;;5065956;28;20033;-82
2023/10/11 12:44:14;;;;;;;10.80;3.35;;;19.20;99.90;;;;;;5054768;28;20491;-82
2023/10/11 12:46:40;;;;;;;10.38;3.50;;;19.10;99.90;;;;;;5059264;28;20032;-82
2023/10/11 12:49:12;;;;;;;11.95;3.88;;;19.20;99.90;;;;;;5071299;28;20381;-82
2023/10/11 12:51:45;;;;;;;9.90;3.13;;;19.20;99.90;;;;;;5071118;28;20037;-81
2023/10/11 12:54:15;;;;;;;6.85;3.25;;;19.20;99.90;;;;;;5066100;28;20033;-81
2023/10/11 12:56:45;;;;;;;8.88;3.65;;;19.30;99.90;;;;;;5054635;28;20052;-82
2023/10/11 12:59:14;;;;;;;9.25;3.40;;;19.30;99.90;;;;;;5056884;28;20060;-82
2023/10/11 13:01:52;;;;;;;8.38;3.40;;;19.20;99.90;;;;;;5057513;28;20054;-81
2023/10/11 13:04:23;;;;;;;10.50;3.20;;;19.10;99.90;;;;;;5055432;28;20044;-82
2023/10/11 13:06:49;;;;;;;10.57;3.58;;;19.20;99.90;;;;;;5056282;28;20037;-81
2023/10/11 13:09:21;;;;;;;9.02;3.88;;;19.30;99.90;;;;;;5055361;28;20036;-82
2023/10/11 13:11:47;;;;;;;9.82;3.90;;;19.30;99.90;;;;;;5060899;28;20037;-81
2023/10/11 13:14:20;;;;;;;6.82;2.97;;;19.40;99.90;;;;;;5071437;28;20385;-81
2023/10/11 13:16:48;;;;;;;11.98;3.28;;;19.50;99.90;;;;;;5067722;28;20040;-81
2023/10/11 13:19:22;;;;;;;11.13;3.60;;;19.50;99.90;;;;;;5055545;28;20115;-81
2023/10/11 13:21:48;;;;;;;9.68;2.95;;;19.50;99.90;;;;;;5043939;28;20080;-82
2023/10/11 13:24:22;;;;;;;10.13;3.33;;;19.70;99.90;;;;;;5072030;28;20468;-82
2023/10/11 13:26:52;;;;;;;10.30;3.40;;;19.70;99.90;;;;;;5071915;28;20047;-82
2023/10/11 13:29:18;;;;;;;9.10;3.28;;;19.70;99.90;;;;;;5055041;28;20594;-81
2023/10/11 13:31:49;;;;;;;11.38;3.33;;;19.70;99.90;;;;;;5055803;28;20505;-82
2023/10/11 13:34:15;;;;;;;10.13;3.38;;;19.60;99.90;;;;;;5067723;28;20036;-81
2023/10/11 13:36:42;;;;;;;10.13;4.20;;;19.60;99.90;;;;;;5055745;28;20396;-82
2023/10/11 13:39:25;;;;;;;11.40;3.28;;;19.50;99.90;;;;;;5046974;28;20040;-82
2023/10/11 13:42:09;;;;;;;9.70;3.67;;;19.50;99.90;;;;;;5051986;28;20086;-82